createdAt,value
2019-03-26T00:01:04.171Z,27.50
2019-03-26T00:03:39.229Z,15.00
2019-03-26T00:06:12.536Z,23.73
2019-03-26T00:08:41.805Z,13.80
2019-03-26T00:11:14.096Z,17.03
2019-03-26T00:13:49.718Z,17.43
2019-03-26T00:16:15.774Z,15.13
2019-03-26T00:18:44.252Z,19.10
2019-03-26T00:21:12.936Z,17.30
2019-03-26T00:23:41.498Z,17.57
2019-03-26T00:26:11.266Z,12.03
2019-03-26T00:28:39.897Z,16.40
2019-03-26T00:31:08.371Z,15.10
2019-03-26T00:33:36.997Z,28.80
2019-03-26T00:36:06.430Z,14.47
2019-03-26T00:38:34.930Z,18.43
2019-03-26T00:41:03.645Z,19.43
2019-03-26T00:43:32.110Z,16.27
2019-03-26T00:46:00.623Z,21.20
2019-03-26T00:48:29.728Z,18.53
2019-03-26T00:50:58.281Z,26.07
2019-03-26T00:53:26.741Z,22.00
2019-03-26T00:55:55.307Z,18.17
2019-03-26T00:58:24.128Z,13.17
2019-03-26T01:00:52.846Z,20.80
2019-03-26T01:03:21.492Z,22.10
2019-03-26T01:05:50.121Z,16.27
2019-03-26T01:08:18.585Z,20.53
2019-03-26T01:10:47.347Z,13.70
2019-03-26T01:13:16.206Z,23.32
2019-03-26T01:15:44.736Z,18.83
2019-03-26T01:18:13.580Z,17.57
2019-03-26T01:20:42.203Z,16.03
2019-03-26T01:23:30.113Z,9.35
2019-03-26T01:25:58.582Z,15.00
2019-03-26T01:28:27.117Z,16.40
2019-03-26T01:30:55.722Z,13.07
2019-03-26T01:33:24.181Z,10.37
2019-03-26T01:35:52.751Z,11.17
2019-03-26T01:38:21.380Z,18.23
2019-03-26T01:40:51.500Z,17.13
2019-03-26T01:43:20.296Z,9.37
2019-03-26T01:45:48.832Z,19.20
2019-03-26T01:48:17.557Z,18.60
2019-03-26T01:50:46.015Z,13.53
2019-03-26T01:53:14.482Z,13.80
2019-03-26T01:55:43.332Z,11.17
2019-03-26T01:58:11.844Z,10.50
2019-03-26T02:00:40.375Z,14.40
2019-03-26T02:03:08.924Z,15.65
2019-03-26T02:05:37.379Z,12.13
2019-03-26T02:08:06.001Z,16.30
2019-03-26T02:10:34.480Z,14.00
2019-03-26T02:13:03.276Z,17.77
2019-03-26T02:15:33.404Z,12.07
2019-03-26T02:18:02.613Z,15.57
2019-03-26T02:20:31.226Z,12.30
2019-03-26T02:23:00.068Z,12.63
2019-03-26T02:25:29.129Z,15.30
2019-03-26T02:27:57.769Z,17.90
2019-03-26T02:30:26.563Z,12.27
2019-03-26T02:32:55.027Z,15.97
2019-03-26T02:35:23.494Z,13.75
2019-03-26T02:37:51.992Z,15.23
2019-03-26T02:40:20.634Z,14.68
2019-03-26T02:42:49.107Z,13.60
2019-03-26T02:45:17.643Z,10.40
2019-03-26T02:47:46.561Z,15.17
2019-03-26T02:50:15.296Z,13.53
2019-03-26T02:52:43.775Z,12.53
2019-03-26T02:55:12.401Z,19.27
2019-03-26T02:57:40.982Z,7.50
2019-03-26T03:00:10.747Z,15.77
2019-03-26T03:02:39.296Z,16.27
2019-03-26T03:05:08.302Z,20.50
2019-03-26T03:07:36.768Z,17.63
2019-03-26T03:10:06.943Z,22.60
2019-03-26T03:12:35.774Z,10.90
2019-03-26T03:15:07.046Z,13.93
2019-03-26T03:17:35.522Z,11.50
2019-03-26T03:20:07.223Z,19.43
2019-03-26T03:22:35.761Z,19.83
2019-03-26T03:25:05.218Z,12.90
2019-03-26T03:27:33.679Z,18.87
2019-03-26T03:30:02.191Z,10.10
2019-03-26T03:32:30.714Z,15.67
2019-03-26T03:34:59.208Z,16.50
2019-03-26T03:37:28.896Z,14.17
2019-03-26T03:39:57.358Z,10.10
2019-03-26T03:42:25.992Z,11.50
2019-03-26T03:44:54.523Z,17.30
2019-03-26T03:47:26.100Z,11.70
2019-03-26T03:49:58.858Z,17.70
2019-03-26T03:52:30.241Z,15.43
2019-03-26T03:54:59.548Z,10.90
2019-03-26T03:57:31.098Z,11.20
2019-03-26T04:00:00.997Z,12.27
2019-03-26T04:02:29.904Z,17.20
2019-03-26T04:04:58.395Z,14.70
2019-03-26T04:07:26.926Z,7.13
2019-03-26T04:09:55.379Z,17.17
2019-03-26T04:12:23.838Z,15.57
2019-03-26T04:14:52.297Z,8.30
2019-03-26T04:17:20.773Z,16.67
2019-03-26T04:19:50.780Z,16.00
2019-03-26T04:22:19.395Z,9.77
2019-03-26T04:24:47.925Z,9.60
2019-03-26T04:27:16.389Z,10.43
2019-03-26T04:29:44.937Z,12.23
2019-03-26T04:32:13.596Z,11.15
2019-03-26T04:34:42.055Z,17.10
2019-03-26T04:37:10.597Z,14.28
2019-03-26T04:39:39.045Z,14.23
2019-03-26T04:42:07.851Z,17.80
2019-03-26T04:44:36.440Z,8.90
2019-03-26T04:47:05.453Z,13.23
2019-03-26T04:49:34.939Z,16.13
2019-03-26T04:52:03.678Z,12.57
2019-03-26T04:54:32.177Z,18.43
2019-03-26T04:57:01.009Z,16.33
2019-03-26T04:59:29.471Z,12.40
2019-03-26T05:01:57.945Z,13.23
2019-03-26T05:04:26.443Z,8.23
2019-03-26T05:06:54.897Z,20.13
2019-03-26T05:09:23.495Z,13.28
2019-03-26T05:11:51.961Z,14.90
2019-03-26T05:14:20.437Z,12.43
2019-03-26T05:16:49.122Z,9.00
2019-03-26T05:19:17.581Z,17.25
2019-03-26T05:21:46.058Z,14.70
2019-03-26T05:24:14.522Z,17.07
2019-03-26T05:26:43.315Z,18.80
2019-03-26T05:29:12.230Z,10.50
2019-03-26T05:31:40.864Z,14.10
2019-03-26T05:34:09.350Z,19.20
2019-03-26T05:36:50.393Z,15.13
2019-03-26T05:39:08.447Z,16.43
2019-03-26T05:41:37.185Z,16.60
2019-03-26T05:44:05.942Z,19.12
2019-03-26T05:46:34.734Z,16.07
2019-03-26T05:49:03.221Z,16.33
2019-03-26T05:51:31.761Z,12.70
2019-03-26T05:54:00.294Z,17.87
2019-03-26T05:56:30.556Z,14.20
2019-03-26T05:58:58.954Z,18.40
2019-03-26T06:01:27.495Z,9.73
2019-03-26T06:03:56.043Z,14.23
2019-03-26T06:06:24.596Z,13.20
2019-03-26T06:08:55.269Z,15.70
2019-03-26T06:11:25.288Z,12.03
2019-03-26T06:13:54.076Z,16.50
2019-03-26T06:16:22.655Z,10.58
2019-03-26T06:18:51.466Z,22.73
2019-03-26T06:21:19.929Z,17.63
2019-03-26T06:23:48.395Z,16.60
2019-03-26T06:26:17.705Z,20.07
2019-03-26T06:28:46.464Z,16.50
2019-03-26T06:31:15.060Z,15.43
2019-03-26T06:33:43.529Z,16.00
2019-03-26T06:36:11.998Z,16.75
2019-03-26T06:38:40.495Z,14.37
2019-03-26T06:41:09.207Z,14.80
2019-03-26T06:43:37.658Z,23.73
2019-03-26T06:46:06.203Z,15.53
2019-03-26T06:48:34.715Z,21.83
2019-03-26T06:51:03.230Z,15.60
2019-03-26T06:53:31.757Z,15.40
2019-03-26T06:56:00.232Z,13.90
2019-03-26T06:58:28.702Z,22.83
2019-03-26T07:00:57.329Z,21.70
2019-03-26T07:03:25.799Z,20.07
2019-03-26T07:05:54.633Z,16.90
2019-03-26T07:08:23.348Z,10.93
2019-03-26T07:10:51.823Z,21.00
2019-03-26T07:13:20.349Z,23.10
2019-03-26T07:15:48.825Z,16.40
2019-03-26T07:18:17.528Z,11.53
2019-03-26T07:20:46.156Z,14.03
2019-03-26T07:23:14.759Z,12.40
2019-03-26T07:25:43.441Z,19.77
2019-03-26T07:28:11.970Z,15.58
2019-03-26T07:30:45.174Z,15.97
2019-03-26T07:33:13.625Z,19.95
2019-03-26T07:35:42.467Z,21.90
2019-03-26T07:38:11.269Z,16.53
2019-03-26T07:40:40.190Z,13.40
2019-03-26T07:43:09.075Z,16.60
2019-03-26T07:45:37.614Z,27.27
2019-03-26T07:48:06.528Z,21.17
2019-03-26T07:50:35.010Z,17.43
2019-03-26T07:53:04.209Z,15.80
2019-03-26T07:55:32.749Z,18.63
2019-03-26T07:58:01.316Z,16.80
2019-03-26T08:00:34.813Z,18.47
2019-03-26T08:03:03.306Z,28.07
2019-03-26T08:05:31.786Z,14.83
2019-03-26T08:08:00.786Z,19.57
2019-03-26T08:10:29.400Z,13.80
2019-03-26T08:12:58.337Z,16.33
2019-03-26T08:15:26.919Z,18.10
2019-03-26T08:17:55.513Z,20.07
2019-03-26T08:20:24.344Z,21.33
2019-03-26T08:22:53.142Z,16.43
2019-03-26T08:25:21.751Z,12.68
2019-03-26T08:27:50.301Z,14.37
2019-03-26T08:30:18.779Z,12.33
2019-03-26T08:32:47.308Z,13.70
2019-03-26T08:35:15.772Z,16.00
2019-03-26T08:37:44.331Z,24.30
2019-03-26T08:40:14.181Z,17.20
2019-03-26T08:42:42.677Z,19.13
2019-03-26T08:45:11.489Z,14.37
2019-03-26T08:47:40.029Z,13.93
2019-03-26T08:50:09.501Z,18.83
2019-03-26T08:52:37.975Z,16.83
2019-03-26T08:55:09.059Z,12.93
2019-03-26T08:57:37.530Z,17.10
2019-03-26T09:00:08.604Z,14.50
2019-03-26T09:02:37.543Z,17.47
2019-03-26T09:05:07.485Z,11.83
2019-03-26T09:07:36.040Z,11.93
2019-03-26T09:10:07.592Z,20.95
2019-03-26T09:12:39.248Z,12.00
2019-03-26T09:15:08.976Z,17.37
2019-03-26T09:17:38.002Z,20.10
2019-03-26T09:20:08.829Z,8.73
2019-03-26T09:22:37.346Z,9.83
2019-03-26T09:25:07.475Z,13.83
2019-03-26T09:27:36.029Z,10.47
2019-03-26T09:30:07.620Z,11.43
2019-03-26T09:32:36.561Z,16.20
2019-03-26T09:35:08.585Z,15.13
2019-03-26T09:37:37.698Z,9.20
2019-03-26T09:40:08.485Z,14.73
2019-03-26T09:42:38.649Z,10.77
2019-03-26T09:45:09.584Z,10.53
2019-03-26T09:47:39.217Z,13.40
2019-03-26T09:50:10.385Z,11.93
2019-03-26T09:52:38.920Z,14.93
2019-03-26T09:55:09.118Z,14.13
2019-03-26T09:57:38.002Z,19.30
2019-03-26T10:00:09.619Z,12.67
2019-03-26T10:02:38.081Z,14.37
2019-03-26T10:05:08.375Z,20.70
2019-03-26T10:07:36.849Z,12.00
2019-03-26T10:10:09.920Z,8.20
2019-03-26T10:12:38.723Z,14.47
2019-03-26T10:15:08.237Z,16.00
2019-03-26T10:17:37.355Z,19.07
2019-03-26T10:20:07.659Z,12.53
2019-03-26T10:22:37.760Z,10.00
2019-03-26T10:25:10.894Z,17.43
2019-03-26T10:27:38.577Z,15.47
2019-03-26T10:30:10.218Z,15.03
2019-03-26T10:32:39.137Z,10.93
2019-03-26T10:35:08.122Z,16.27
2019-03-26T10:37:36.585Z,17.90
2019-03-26T10:40:07.380Z,11.30
2019-03-26T10:42:36.177Z,15.10
2019-03-26T10:45:06.829Z,16.33
2019-03-26T10:47:35.653Z,17.63
2019-03-26T10:50:06.958Z,11.57
2019-03-26T10:52:35.488Z,15.97
2019-03-26T10:55:06.513Z,14.80
2019-03-26T10:57:35.644Z,13.83
2019-03-26T11:00:06.957Z,12.80
2019-03-26T11:02:35.519Z,19.20
2019-03-26T11:05:06.275Z,16.32
2019-03-26T11:07:34.820Z,11.03
2019-03-26T11:10:04.840Z,11.07
2019-03-26T11:12:33.313Z,12.63
2019-03-26T11:15:01.863Z,13.03
2019-03-26T11:17:30.332Z,19.83
2019-03-26T11:19:58.788Z,9.43
2019-03-26T11:22:27.588Z,11.97
2019-03-26T11:24:56.201Z,13.90
2019-03-26T11:27:25.026Z,13.40
2019-03-26T11:29:53.492Z,13.00
2019-03-26T11:32:22.422Z,7.53
2019-03-26T11:34:50.969Z,11.10
2019-03-26T11:37:19.823Z,17.48
2019-03-26T11:39:48.418Z,15.97
2019-03-26T11:42:17.001Z,15.00
2019-03-26T11:44:45.469Z,13.50
2019-03-26T11:47:15.028Z,12.17
2019-03-26T11:49:43.498Z,9.20
2019-03-26T11:52:12.051Z,12.73
2019-03-26T11:54:40.569Z,10.03
2019-03-26T11:57:09.062Z,10.93
2019-03-26T11:59:37.838Z,12.43
2019-03-26T12:02:08.114Z,9.37
2019-03-26T12:04:36.671Z,8.77
2019-03-26T12:07:05.527Z,15.17
2019-03-26T12:09:45.499Z,14.73
2019-03-26T12:12:04.987Z,14.57
2019-03-26T12:14:33.463Z,11.77
2019-03-26T12:17:02.088Z,14.50
2019-03-26T12:19:30.643Z,8.70
2019-03-26T12:21:59.258Z,9.67
2019-03-26T12:24:27.730Z,13.00
2019-03-26T12:26:56.214Z,13.37
2019-03-26T12:29:24.698Z,21.03
2019-03-26T12:31:53.185Z,13.60
2019-03-26T12:34:21.723Z,10.70
2019-03-26T12:36:50.195Z,13.50
2019-03-26T12:39:18.674Z,7.83
2019-03-26T12:41:47.230Z,9.17
2019-03-26T12:44:15.793Z,10.83
2019-03-26T12:46:44.369Z,8.70
2019-03-26T12:49:12.940Z,9.38
2019-03-26T12:51:41.515Z,11.23
2019-03-26T12:54:09.985Z,14.20
2019-03-26T12:56:38.592Z,12.30
2019-03-26T12:59:07.139Z,18.30
2019-03-26T13:01:35.601Z,12.17
2019-03-26T13:04:12.688Z,9.20
2019-03-26T13:06:35.336Z,15.03
2019-03-26T13:09:05.350Z,15.00
2019-03-26T13:11:34.638Z,11.97
2019-03-26T13:14:03.193Z,11.23
2019-03-26T13:16:31.732Z,14.43
2019-03-26T13:19:01.850Z,13.30
2019-03-26T13:21:30.314Z,14.67
2019-03-26T13:23:59.019Z,12.57
2019-03-26T13:26:27.570Z,10.90
2019-03-26T13:28:56.029Z,12.00
2019-03-26T13:31:24.488Z,12.50
2019-03-26T13:33:52.996Z,13.23
2019-03-26T13:36:21.492Z,12.93
2019-03-26T13:38:49.956Z,9.47
2019-03-26T13:41:18.419Z,14.78
2019-03-26T13:43:46.891Z,9.70
2019-03-26T13:46:15.361Z,9.03
2019-03-26T13:48:43.838Z,11.47
2019-03-26T13:51:12.406Z,16.20
2019-03-26T13:53:40.933Z,9.97
2019-03-26T13:56:09.397Z,14.50
2019-03-26T13:58:37.932Z,9.50
2019-03-26T14:01:06.410Z,10.50
2019-03-26T14:03:35.624Z,11.83
2019-03-26T14:06:04.986Z,14.23
2019-03-26T14:08:33.754Z,10.93
2019-03-26T14:11:02.475Z,11.47
2019-03-26T14:13:30.954Z,12.63
2019-03-26T14:16:00.369Z,8.07
2019-03-26T14:18:29.230Z,6.77
2019-03-26T14:20:57.695Z,9.07
2019-03-26T14:23:26.174Z,7.93
2019-03-26T14:25:55.393Z,9.87
2019-03-26T14:28:23.904Z,7.73
2019-03-26T14:30:52.674Z,9.03
2019-03-26T14:33:21.246Z,11.80
2019-03-26T14:35:51.573Z,10.20
2019-03-26T14:38:24.726Z,12.40
2019-03-26T14:40:56.510Z,11.87
2019-03-26T14:43:25.390Z,10.93
2019-03-26T14:45:54.028Z,14.17
2019-03-26T14:48:22.599Z,13.55
2019-03-26T14:50:51.087Z,10.27
2019-03-26T14:53:20.052Z,12.43
2019-03-26T14:55:48.600Z,13.33
2019-03-26T14:58:24.351Z,11.65
2019-03-26T15:00:53.187Z,10.70
2019-03-26T15:03:24.834Z,15.65
2019-03-26T15:05:53.365Z,16.73
2019-03-26T15:08:21.871Z,16.33
2019-03-26T15:10:50.417Z,11.10
2019-03-26T15:13:19.454Z,16.10
2019-03-26T15:15:48.084Z,12.13
2019-03-26T15:18:16.545Z,9.60
2019-03-26T15:20:45.015Z,21.73
2019-03-26T15:23:13.508Z,15.10
2019-03-26T15:25:42.022Z,12.47
2019-03-26T15:28:11.906Z,12.37
2019-03-26T15:30:40.855Z,16.73
2019-03-26T15:33:09.335Z,13.60
2019-03-26T15:35:38.487Z,13.30
2019-03-26T15:38:07.483Z,13.13
2019-03-26T15:40:37.784Z,17.13
2019-03-26T15:43:06.680Z,17.20
2019-03-26T15:45:35.528Z,12.87
2019-03-26T15:48:05.135Z,22.10
2019-03-26T15:50:41.368Z,10.50
2019-03-26T15:53:09.910Z,16.85
2019-03-26T15:55:39.061Z,16.70
2019-03-26T15:58:07.624Z,20.40
2019-03-26T16:00:37.021Z,12.40
2019-03-26T16:03:06.003Z,11.63
2019-03-26T16:05:34.644Z,11.07
2019-03-26T16:08:03.458Z,18.30
2019-03-26T16:10:32.020Z,14.73
2019-03-26T16:13:00.482Z,17.90
2019-03-26T16:15:29.092Z,16.07
2019-03-26T16:17:57.658Z,16.60
2019-03-26T16:20:26.128Z,25.80
2019-03-26T16:22:54.661Z,14.57
2019-03-26T16:25:24.808Z,11.97
2019-03-26T16:27:53.734Z,19.77
2019-03-26T16:30:22.271Z,19.70
2019-03-26T16:32:50.742Z,19.20
2019-03-26T16:35:19.375Z,16.30
2019-03-26T16:37:47.923Z,12.83
2019-03-26T16:40:16.467Z,19.57
2019-03-26T16:42:44.948Z,20.37
2019-03-26T16:45:14.978Z,14.43
2019-03-26T16:47:43.473Z,18.53
2019-03-26T16:50:12.964Z,14.83
2019-03-26T16:52:41.500Z,12.37
2019-03-26T16:55:10.435Z,17.92
2019-03-26T16:57:41.778Z,17.83
2019-03-26T17:00:10.144Z,20.70
2019-03-26T17:02:38.621Z,16.50
2019-03-26T17:05:07.641Z,16.17
2019-03-26T17:07:36.149Z,21.93
2019-03-26T17:10:07.066Z,20.37
2019-03-26T17:12:35.630Z,18.67
2019-03-26T17:15:07.920Z,23.43
2019-03-26T17:17:36.823Z,22.07
2019-03-26T17:20:07.108Z,27.00
2019-03-26T17:22:35.614Z,20.40
2019-03-26T17:25:07.791Z,19.12
2019-03-26T17:27:36.253Z,21.05
2019-03-26T17:30:06.995Z,18.90
2019-03-26T17:32:35.462Z,20.17
2019-03-26T17:35:06.457Z,17.13
2019-03-26T17:37:34.976Z,19.43
2019-03-26T17:40:04.758Z,18.33
2019-03-26T17:42:33.213Z,12.37
2019-03-26T17:45:01.752Z,18.87
2019-03-26T17:47:30.223Z,11.53
2019-03-26T17:49:58.790Z,20.55
2019-03-26T17:52:27.264Z,20.07
2019-03-26T17:54:55.966Z,16.30
2019-03-26T17:57:24.523Z,19.10
2019-03-26T17:59:53.054Z,12.90
2019-03-26T18:02:21.577Z,16.30
2019-03-26T18:04:50.991Z,17.63
2019-03-26T18:07:19.544Z,15.10
2019-03-26T18:09:48.077Z,15.13
2019-03-26T18:12:35.953Z,20.93
2019-03-26T18:15:05.669Z,14.50
2019-03-26T18:17:34.170Z,16.23
2019-03-26T18:20:03.439Z,23.67
2019-03-26T18:22:31.931Z,16.90
2019-03-26T18:25:00.413Z,22.80
2019-03-26T18:27:28.960Z,16.37
2019-03-26T18:29:57.448Z,14.73
2019-03-26T18:32:26.054Z,14.07
2019-03-26T18:34:54.596Z,18.97
2019-03-26T18:37:23.079Z,19.67
2019-03-26T18:39:51.632Z,15.10
2019-03-26T18:42:20.186Z,18.37
2019-03-26T18:44:48.670Z,22.33
2019-03-26T18:47:17.183Z,16.77
2019-03-26T18:49:45.943Z,16.70
2019-03-26T18:52:14.851Z,21.93
2019-03-26T18:54:43.784Z,19.43
2019-03-26T18:57:13.112Z,24.23
2019-03-26T18:59:42.045Z,20.60
2019-03-26T19:02:11.154Z,16.37
2019-03-26T19:04:39.632Z,25.33
2019-03-26T19:07:08.179Z,27.33
2019-03-26T19:09:37.122Z,20.77
2019-03-26T19:12:07.368Z,18.10
2019-03-26T19:14:35.902Z,21.97
2019-03-26T19:17:04.822Z,21.27
2019-03-26T19:19:33.303Z,20.80
2019-03-26T19:22:02.118Z,18.57
2019-03-26T19:24:31.029Z,28.13
2019-03-26T19:26:59.491Z,34.20
2019-03-26T19:29:28.058Z,19.82
2019-03-26T19:31:56.590Z,22.90
2019-03-26T19:34:25.287Z,26.00
2019-03-26T19:36:53.825Z,25.80
2019-03-26T19:39:22.378Z,29.23
2019-03-26T19:41:51.589Z,25.93
2019-03-26T19:44:20.398Z,25.87
2019-03-26T19:46:48.996Z,21.27
2019-03-26T19:49:17.681Z,30.83
2019-03-26T19:51:46.158Z,27.10
2019-03-26T19:54:14.711Z,25.23
2019-03-26T19:56:48.091Z,25.37
2019-03-26T19:59:16.748Z,28.60
2019-03-26T20:01:45.212Z,34.40
2019-03-26T20:04:13.777Z,29.87
2019-03-26T20:06:42.257Z,25.80
2019-03-26T20:09:10.805Z,23.90
2019-03-26T20:11:39.538Z,35.97
2019-03-26T20:14:08.027Z,25.77
2019-03-26T20:16:41.949Z,28.67
2019-03-26T20:19:06.865Z,23.93
2019-03-26T20:21:35.334Z,32.50
2019-03-26T20:24:04.898Z,26.70
2019-03-26T20:26:33.372Z,23.13
2019-03-26T20:29:01.838Z,24.82
2019-03-26T20:31:30.375Z,27.83
2019-03-26T20:33:58.849Z,26.37
2019-03-26T20:36:27.540Z,25.10
2019-03-26T20:38:56.096Z,28.47
2019-03-26T20:41:24.721Z,28.07
2019-03-26T20:43:53.733Z,25.33
2019-03-26T20:46:22.269Z,28.87
2019-03-26T20:48:50.742Z,24.20
2019-03-26T20:51:19.207Z,28.37
2019-03-26T20:53:47.696Z,24.87
2019-03-26T20:56:16.242Z,31.37
2019-03-26T20:58:45.337Z,25.27
2019-03-26T21:01:13.871Z,29.93
2019-03-26T21:03:42.980Z,27.47
2019-03-26T21:06:11.469Z,28.87
2019-03-26T21:08:41.967Z,25.97
2019-03-26T21:11:10.425Z,20.40
2019-03-26T21:13:50.317Z,23.73
2019-03-26T21:16:09.158Z,23.47
2019-03-26T21:18:37.640Z,29.63
2019-03-26T21:21:06.163Z,24.13
2019-03-26T21:23:34.645Z,26.83
2019-03-26T21:26:03.234Z,31.47
2019-03-26T21:28:32.172Z,26.10
2019-03-26T21:31:05.798Z,28.40
2019-03-26T21:33:37.192Z,19.33
2019-03-26T21:36:07.312Z,20.90
2019-03-26T21:38:35.785Z,32.40
2019-03-26T21:41:07.096Z,24.73
2019-03-26T21:43:35.537Z,25.90
2019-03-26T21:46:05.007Z,31.13
2019-03-26T21:48:33.646Z,28.00
2019-03-26T21:51:02.125Z,32.30
2019-03-26T21:53:30.727Z,29.40
2019-03-26T21:56:06.334Z,27.67
2019-03-26T21:58:29.416Z,34.03
2019-03-26T22:00:58.020Z,27.17
2019-03-26T22:03:26.810Z,27.87
2019-03-26T22:05:55.765Z,28.97
2019-03-26T22:08:24.301Z,34.30
2019-03-26T22:10:53.054Z,29.30
2019-03-26T22:13:21.628Z,18.47
2019-03-26T22:15:50.104Z,27.43
2019-03-26T22:18:18.585Z,25.20
2019-03-26T22:20:47.078Z,24.97
2019-03-26T22:23:15.878Z,31.43
2019-03-26T22:25:44.449Z,33.30
2019-03-26T22:28:13.240Z,23.67
2019-03-26T22:30:41.696Z,26.53
2019-03-26T22:33:10.166Z,27.00
2019-03-26T22:35:38.992Z,27.47
2019-03-26T22:38:07.920Z,29.40
2019-03-26T22:40:36.385Z,29.73
2019-03-26T22:43:05.686Z,26.57
2019-03-26T22:45:35.378Z,29.30
2019-03-26T22:48:04.691Z,23.70
2019-03-26T22:50:33.277Z,30.33
2019-03-26T22:53:01.755Z,22.97
2019-03-26T22:55:30.214Z,27.27
2019-03-26T22:57:58.681Z,23.00
2019-03-26T23:00:29.329Z,31.10
2019-03-26T23:02:57.880Z,20.10
2019-03-26T23:05:29.480Z,27.50
2019-03-26T23:07:58.099Z,25.33
2019-03-26T23:10:26.650Z,31.07
2019-03-26T23:12:55.256Z,28.83
2019-03-26T23:15:25.637Z,22.20
2019-03-26T23:17:54.470Z,27.90
2019-03-26T23:20:23.322Z,29.90
2019-03-26T23:22:51.939Z,26.50
2019-03-26T23:25:20.486Z,26.00
2019-03-26T23:27:49.025Z,28.00
2019-03-26T23:30:18.436Z,27.43
2019-03-26T23:32:46.950Z,30.40
2019-03-26T23:35:15.583Z,25.93
2019-03-26T23:37:44.548Z,25.57
2019-03-26T23:40:13.721Z,31.05
2019-03-26T23:42:43.834Z,33.10
2019-03-26T23:45:19.603Z,30.37
2019-03-26T23:47:45.649Z,32.53
2019-03-26T23:50:14.197Z,31.93
2019-03-26T23:52:42.724Z,31.07
2019-03-26T23:55:12.036Z,25.33
2019-03-26T23:57:40.580Z,29.10
